createdAt,value
2018-04-24T00:00:33.246Z,9.90
2018-04-24T00:03:03.818Z,9.90
2018-04-24T00:05:34.181Z,9.80
2018-04-24T00:08:04.353Z,9.90
2018-04-24T00:10:34.438Z,9.80
2018-04-24T00:13:04.215Z,9.70
2018-04-24T00:15:34.120Z,9.50
2018-04-24T00:18:05.137Z,9.40
2018-04-24T00:20:35.412Z,9.20
2018-04-24T00:23:05.501Z,9.20
2018-04-24T00:25:35.619Z,9.20
2018-04-24T00:28:06.496Z,9.00
2018-04-24T00:30:37.054Z,9.00
2018-04-24T00:33:07.152Z,8.90
2018-04-24T00:35:37.851Z,8.80
2018-04-24T00:38:08.090Z,8.80
2018-04-24T00:40:38.940Z,8.80
2018-04-24T00:43:10.385Z,8.70
2018-04-24T00:45:40.661Z,8.80
2018-04-24T00:48:11.563Z,8.90
2018-04-24T00:50:42.598Z,8.80
2018-04-24T00:53:29.500Z,8.80
2018-04-24T00:55:59.579Z,8.80
2018-04-24T00:58:29.451Z,8.60
2018-04-24T01:00:59.206Z,8.70
2018-04-24T01:03:29.307Z,8.80
2018-04-24T01:05:59.425Z,8.90
2018-04-24T01:08:29.541Z,8.80
2018-04-24T01:10:59.901Z,8.80
2018-04-24T01:13:30.401Z,8.90
2018-04-24T01:16:01.135Z,8.90
2018-04-24T01:18:31.259Z,8.90
2018-04-24T01:21:01.104Z,8.90
2018-04-24T01:23:31.192Z,8.80
2018-04-24T01:26:01.455Z,8.70
2018-04-24T01:28:31.257Z,8.60
2018-04-24T01:31:01.332Z,8.50
2018-04-24T01:33:31.528Z,8.50
2018-04-24T01:36:01.597Z,8.40
2018-04-24T01:38:31.684Z,8.30
2018-04-24T01:41:02.377Z,8.10
2018-04-24T01:43:32.511Z,8.10
2018-04-24T01:46:03.372Z,8.20
2018-04-24T01:48:33.507Z,8.10
2018-04-24T01:51:04.361Z,8.30
2018-04-24T01:53:34.453Z,8.30
2018-04-24T01:56:04.446Z,8.50
2018-04-24T01:58:35.574Z,8.60
2018-04-24T02:01:05.296Z,8.60
2018-04-24T02:03:35.466Z,8.60
2018-04-24T02:06:05.612Z,8.70
2018-04-24T02:08:35.723Z,8.60
2018-04-24T02:11:05.868Z,8.50
2018-04-24T02:13:37.038Z,8.40
2018-04-24T02:16:07.116Z,8.40
2018-04-24T02:18:38.076Z,8.40
2018-04-24T02:21:07.832Z,8.50
2018-04-24T02:23:38.127Z,8.50
2018-04-24T02:26:08.723Z,8.50
2018-04-24T02:28:38.829Z,8.40
2018-04-24T02:31:08.896Z,8.40
2018-04-24T02:33:39.949Z,8.50
2018-04-24T02:36:10.496Z,8.50
2018-04-24T02:38:40.930Z,8.50
2018-04-24T02:41:12.121Z,8.40
2018-04-24T02:43:42.998Z,8.40
2018-04-24T02:46:13.279Z,8.30
2018-04-24T02:48:44.340Z,8.20
2018-04-24T02:51:14.723Z,8.20
2018-04-24T02:53:44.819Z,8.00
2018-04-24T02:56:14.625Z,7.80
2018-04-24T02:58:44.485Z,7.70
2018-04-24T03:01:15.333Z,7.60
2018-04-24T03:03:46.431Z,7.50
2018-04-24T03:06:16.524Z,7.40
2018-04-24T03:08:46.824Z,7.40
2018-04-24T03:11:16.813Z,7.40
2018-04-24T03:13:47.175Z,7.40
2018-04-24T03:16:17.146Z,7.50
2018-04-24T03:18:47.266Z,7.50
2018-04-24T03:21:18.156Z,7.30
2018-04-24T03:23:49.004Z,7.20
2018-04-24T03:26:19.904Z,7.20
2018-04-24T03:28:50.034Z,7.20
2018-04-24T03:31:21.886Z,7.10
2018-04-24T03:33:52.008Z,7.10
2018-04-24T03:36:22.117Z,7.10
2018-04-24T03:38:52.548Z,7.20
2018-04-24T03:41:23.447Z,7.40
2018-04-24T03:43:53.545Z,7.60
2018-04-24T03:46:23.624Z,7.80
2018-04-24T03:48:53.728Z,7.80
2018-04-24T03:51:23.815Z,7.90
2018-04-24T03:53:54.681Z,8.10
2018-04-24T03:56:24.977Z,8.10
2018-04-24T03:58:55.286Z,8.20
2018-04-24T04:01:25.790Z,8.20
2018-04-24T04:03:56.087Z,8.10
2018-04-24T04:06:26.638Z,8.20
2018-04-24T04:08:56.780Z,8.20
2018-04-24T04:11:26.663Z,7.90
2018-04-24T04:13:56.946Z,7.70
2018-04-24T04:16:27.032Z,7.50
2018-04-24T04:19:14.700Z,7.30
2018-04-24T04:35:25.088Z,7.00
2018-04-24T04:37:55.536Z,7.00
2018-04-24T04:40:25.955Z,7.00
2018-04-24T04:42:57.740Z,7.00
2018-04-24T04:45:29.271Z,7.00
2018-04-24T04:47:59.366Z,6.90
2018-04-24T04:50:43.799Z,6.90
2018-04-24T04:53:15.079Z,6.90
2018-04-24T04:55:45.518Z,7.00
2018-04-24T04:58:17.339Z,7.10
2018-04-24T05:00:47.675Z,7.20
2018-04-24T05:06:17.948Z,7.60
2018-04-24T05:08:48.503Z,7.80
2018-04-24T05:11:18.603Z,8.00
2018-04-24T05:13:48.672Z,8.00
2018-04-24T05:16:18.773Z,8.10
2018-04-24T05:18:49.615Z,8.30
2018-04-24T05:21:19.706Z,8.30
2018-04-24T05:23:49.807Z,8.40
2018-04-24T05:26:20.083Z,8.50
2018-04-24T05:28:50.351Z,8.60
2018-04-24T05:31:20.677Z,8.70
2018-04-24T05:33:51.058Z,8.90
2018-04-24T05:36:21.654Z,9.10
2018-04-24T05:38:51.728Z,9.20
2018-04-24T05:41:22.029Z,9.40
2018-04-24T05:43:53.113Z,9.90
2018-04-24T05:46:24.064Z,9.90
2018-04-24T05:48:54.118Z,10.30
2018-04-24T05:51:25.184Z,11.20
2018-04-24T05:53:55.283Z,11.20
2018-04-24T05:56:25.404Z,11.80
2018-04-24T05:58:55.471Z,12.30
2018-04-24T06:01:25.570Z,12.60
2018-04-24T06:03:55.675Z,12.70
2018-04-24T06:06:25.754Z,12.90
2018-04-24T06:08:56.820Z,13.10
2018-04-24T06:11:26.923Z,13.00
2018-04-24T06:13:57.208Z,13.10
2018-04-24T06:16:28.077Z,14.00
2018-04-24T06:18:59.115Z,14.60
2018-04-24T06:21:29.215Z,14.60
2018-04-24T06:23:59.303Z,15.20
2018-04-24T06:26:29.408Z,15.50
2018-04-24T06:28:59.501Z,15.40
2018-04-24T06:31:30.133Z,15.40
2018-04-24T06:34:00.230Z,15.10
2018-04-24T06:36:30.304Z,15.10
2018-04-24T06:39:01.420Z,15.00
2018-04-24T06:41:31.514Z,15.00
2018-04-24T06:44:01.927Z,15.10
2018-04-24T06:46:32.012Z,15.20
2018-04-24T06:49:02.102Z,15.40
2018-04-24T06:51:32.747Z,15.70
2018-04-24T06:54:02.847Z,15.60
2018-04-24T06:56:33.693Z,15.80
2018-04-24T06:59:04.635Z,15.60
2018-04-24T07:01:34.707Z,15.60
2018-04-24T07:04:05.234Z,15.80
2018-04-24T07:06:35.555Z,15.80
2018-04-24T07:09:04.833Z,15.50
2018-04-24T07:11:34.934Z,15.60
2018-04-24T07:14:05.211Z,15.50
2018-04-24T07:16:35.568Z,15.30
2018-04-24T07:19:05.840Z,15.30
2018-04-24T07:21:36.119Z,15.10
2018-04-24T07:24:06.402Z,15.00
2018-04-24T07:26:36.731Z,15.20
2018-04-24T07:29:06.824Z,15.40
2018-04-24T07:31:37.115Z,15.30
2018-04-24T07:34:07.216Z,15.50
2018-04-24T07:36:37.497Z,15.30
2018-04-24T07:39:08.607Z,15.10
2018-04-24T07:41:39.273Z,15.00
2018-04-24T07:44:09.534Z,14.80
2018-04-24T07:46:39.865Z,14.60
2018-04-24T07:49:10.418Z,14.40
2018-04-24T07:51:41.728Z,14.30
2018-04-24T07:54:11.808Z,14.20
2018-04-24T07:56:42.167Z,14.20
2018-04-24T07:59:12.437Z,14.70
2018-04-24T08:01:42.714Z,14.80
2018-04-24T08:04:13.632Z,14.80
2018-04-24T08:06:44.202Z,14.90
2018-04-24T08:09:14.308Z,15.00
2018-04-24T08:11:44.423Z,15.40
2018-04-24T08:14:14.516Z,15.50
2018-04-24T08:16:44.891Z,15.70
2018-04-24T08:19:15.238Z,15.60
2018-04-24T08:21:45.322Z,15.30
2018-04-24T08:24:15.447Z,15.10
2018-04-24T08:26:45.769Z,15.30
2018-04-24T08:29:15.855Z,15.40
2018-04-24T08:31:45.619Z,15.40
2018-04-24T08:34:15.744Z,15.70
2018-04-24T08:36:46.053Z,16.20
2018-04-24T08:39:16.157Z,16.80
2018-04-24T08:41:46.770Z,17.60
2018-04-24T08:44:17.646Z,18.20
2018-04-24T08:46:49.095Z,18.40
2018-04-24T08:49:19.740Z,18.40
2018-04-24T08:51:50.405Z,18.50
2018-04-24T08:54:21.258Z,18.40
2018-04-24T08:56:52.083Z,17.70
2018-04-24T08:59:22.459Z,17.10
2018-04-24T09:01:52.738Z,16.80
2018-04-24T09:04:24.583Z,16.70
2018-04-24T09:06:54.871Z,16.60
2018-04-24T09:09:25.212Z,16.60
2018-04-24T09:11:55.275Z,16.90
2018-04-24T09:14:25.368Z,17.10
2018-04-24T09:16:55.929Z,16.60
2018-04-24T09:19:26.207Z,16.60
2018-04-24T09:21:56.540Z,17.30
2018-04-24T09:24:26.659Z,17.20
2018-04-24T09:26:56.978Z,17.20
2018-04-24T09:29:27.215Z,17.70
2018-04-24T09:31:58.143Z,18.40
2018-04-24T09:34:29.047Z,18.70
2018-04-24T09:36:59.715Z,19.00
2018-04-24T09:39:30.498Z,19.30
2018-04-24T09:42:01.474Z,19.50
2018-04-24T09:44:32.055Z,19.90
2018-04-24T09:47:03.166Z,20.20
2018-04-24T09:49:33.937Z,19.80
2018-04-24T09:52:04.479Z,18.70
2018-04-24T09:54:35.123Z,18.70
2018-04-24T09:57:05.772Z,18.60
2018-04-24T09:59:37.199Z,18.30
2018-04-24T10:02:07.847Z,18.80
2018-04-24T10:04:39.482Z,19.80
2018-04-24T10:07:10.326Z,19.70
2018-04-24T10:09:41.728Z,20.10
2018-04-24T10:12:12.386Z,20.00
2018-04-24T10:14:43.065Z,20.20
2018-04-24T10:17:13.891Z,20.50
2018-04-24T10:19:44.630Z,20.80
2018-04-24T10:22:15.395Z,21.20
2018-04-24T10:24:47.006Z,21.00
2018-04-24T10:27:17.735Z,21.00
2018-04-24T10:29:48.539Z,21.00
2018-04-24T10:32:19.383Z,20.60
2018-04-24T10:34:50.531Z,20.00
2018-04-24T10:37:21.954Z,20.00
2018-04-24T10:39:53.834Z,20.60
2018-04-24T10:42:24.482Z,20.50
2018-04-24T10:44:55.156Z,20.40
2018-04-24T10:47:25.823Z,19.90
2018-04-24T10:49:56.659Z,19.80
2018-04-24T10:52:27.308Z,19.80
2018-04-24T10:54:58.907Z,20.30
2018-04-24T10:57:29.560Z,20.40
2018-04-24T11:00:01.251Z,19.60
2018-04-24T11:02:32.124Z,19.60
2018-04-24T11:05:02.784Z,19.60
2018-04-24T11:07:33.434Z,19.70
2018-04-24T11:10:03.613Z,19.90
2018-04-24T11:12:34.474Z,20.50
2018-04-24T11:15:05.132Z,20.80
2018-04-24T11:17:35.771Z,20.90
2018-04-24T11:20:06.432Z,21.10
2018-04-24T11:22:37.105Z,21.40
2018-04-24T11:25:07.954Z,21.70
2018-04-24T11:27:38.599Z,21.80
2018-04-24T11:30:08.936Z,21.50
2018-04-24T11:32:40.761Z,21.50
2018-04-24T11:35:11.616Z,21.80
2018-04-24T11:37:42.287Z,21.90
2018-04-24T11:40:13.148Z,22.00
2018-04-24T11:42:43.800Z,22.10
2018-04-24T11:45:14.558Z,22.30
2018-04-24T11:47:45.113Z,22.10
2018-04-24T11:50:15.755Z,22.00
2018-04-24T11:52:46.074Z,22.10
2018-04-24T11:55:16.712Z,21.60
2018-04-24T11:57:47.579Z,21.40
2018-04-24T12:00:18.232Z,21.00
2018-04-24T12:02:49.867Z,21.10
2018-04-24T12:05:20.688Z,21.60
2018-04-24T12:07:51.534Z,22.00
2018-04-24T12:10:22.191Z,22.50
2018-04-24T12:12:53.038Z,22.60
2018-04-24T12:15:23.906Z,22.40
2018-04-24T12:17:54.772Z,22.20
2018-04-24T12:20:25.411Z,22.40
2018-04-24T12:22:56.079Z,21.80
2018-04-24T12:25:26.768Z,21.70
2018-04-24T12:27:57.444Z,21.80
2018-04-24T12:30:28.329Z,22.20
2018-04-24T12:32:59.299Z,22.40
2018-04-24T12:35:31.514Z,21.80
2018-04-24T12:38:02.197Z,21.80
2018-04-24T12:40:32.839Z,21.30
2018-04-24T12:43:03.681Z,21.50
2018-04-24T12:45:35.280Z,20.70
2018-04-24T12:48:05.586Z,20.70
2018-04-24T12:50:37.009Z,21.40
2018-04-24T12:53:07.702Z,21.30
2018-04-24T12:55:38.524Z,21.30
2018-04-24T12:58:09.196Z,21.50
2018-04-24T13:00:40.091Z,21.70
2018-04-24T13:03:11.531Z,21.60
2018-04-24T13:05:43.220Z,21.50
2018-04-24T13:08:13.914Z,21.80
2018-04-24T13:10:45.578Z,22.10
2018-04-24T13:13:16.251Z,22.00
2018-04-24T13:15:47.113Z,21.90
2018-04-24T13:18:17.794Z,22.00
2018-04-24T13:20:49.237Z,22.30
2018-04-24T13:23:19.911Z,22.30
2018-04-24T13:25:51.413Z,22.80
2018-04-24T13:28:21.987Z,22.80
2018-04-24T13:30:52.642Z,22.50
2018-04-24T13:33:23.342Z,22.00
2018-04-24T13:35:54.000Z,21.40
2018-04-24T13:38:25.006Z,21.10
2018-04-24T13:40:56.618Z,20.90
2018-04-24T13:43:27.339Z,20.90
2018-04-24T13:45:58.026Z,20.70
2018-04-24T13:48:28.690Z,20.40
2018-04-24T13:50:59.358Z,20.30
2018-04-24T13:53:30.010Z,20.30
2018-04-24T13:56:00.661Z,20.20
2018-04-24T13:58:32.558Z,19.70
2018-04-24T14:01:03.213Z,19.70
2018-04-24T14:03:33.842Z,19.30
2018-04-24T14:06:04.380Z,19.30
2018-04-24T14:08:35.272Z,19.50
2018-04-24T14:11:05.640Z,19.80
2018-04-24T14:13:36.351Z,19.90
2018-04-24T14:16:07.305Z,20.00
2018-04-24T14:18:38.247Z,20.10
2018-04-24T14:21:09.233Z,20.00
2018-04-24T14:23:40.155Z,20.10
2018-04-24T14:26:11.301Z,20.10
2018-04-24T14:28:42.207Z,20.10
2018-04-24T14:31:12.219Z,20.30
2018-04-24T14:33:43.707Z,20.60
2018-04-24T14:36:14.370Z,20.60
2018-04-24T14:38:45.309Z,20.60
2018-04-24T14:41:16.169Z,20.60
2018-04-24T14:43:47.197Z,20.60
2018-04-24T14:46:17.860Z,20.40
2018-04-24T14:48:48.736Z,20.10
2018-04-24T14:51:19.565Z,20.00
2018-04-24T14:53:49.996Z,20.00
2018-04-24T14:56:21.499Z,20.20
2018-04-24T14:58:52.416Z,20.20
2018-04-24T15:01:23.060Z,20.10
2018-04-24T15:03:54.051Z,20.00
2018-04-24T15:06:24.678Z,19.90
2018-04-24T15:08:55.671Z,20.00
2018-04-24T15:11:26.551Z,20.30
2018-04-24T15:13:57.208Z,20.40
2018-04-24T15:16:27.870Z,20.60
2018-04-24T15:18:58.523Z,20.90
2018-04-24T15:21:29.143Z,21.10
2018-04-24T15:24:00.007Z,21.00
2018-04-24T15:26:30.893Z,20.90
2018-04-24T15:29:01.578Z,20.90
2018-04-24T15:31:32.192Z,21.00
2018-04-24T15:34:03.082Z,20.60
2018-04-24T15:36:33.931Z,20.30
2018-04-24T15:39:03.630Z,20.30
2018-04-24T15:41:34.322Z,20.70
2018-04-24T15:44:05.600Z,21.10
2018-04-24T15:46:36.109Z,21.20
2018-04-24T15:49:07.180Z,21.10
2018-04-24T15:51:37.839Z,21.10
2018-04-24T15:54:09.251Z,21.70
2018-04-24T15:56:39.956Z,21.70
2018-04-24T15:59:11.469Z,22.00
2018-04-24T16:01:42.263Z,22.00
2018-04-24T16:04:13.933Z,22.00
2018-04-24T16:06:45.830Z,21.80
2018-04-24T16:09:16.487Z,21.80
2018-04-24T16:11:47.135Z,21.60
2018-04-24T16:14:18.307Z,21.60
2018-04-24T16:16:48.976Z,21.40
2018-04-24T16:19:19.710Z,21.10
2018-04-24T16:21:50.498Z,20.70
2018-04-24T16:24:21.339Z,20.20
2018-04-24T16:26:52.466Z,19.60
2018-04-24T16:29:23.144Z,19.20
2018-04-24T16:31:53.830Z,18.70
2018-04-24T16:34:25.281Z,18.00
2018-04-24T16:36:56.328Z,18.00
2018-04-24T16:39:27.128Z,17.90
2018-04-24T16:41:57.843Z,18.10
2018-04-24T16:44:28.814Z,18.20
2018-04-24T16:46:59.453Z,18.30
2018-04-24T16:49:30.330Z,18.10
2018-04-24T16:52:01.479Z,18.10
2018-04-24T16:54:32.339Z,18.00
2018-04-24T16:57:02.974Z,18.00
2018-04-24T16:59:34.593Z,17.80
2018-04-24T17:02:04.666Z,17.80
2018-04-24T17:04:35.333Z,17.70
2018-04-24T17:07:06.990Z,17.60
2018-04-24T17:09:37.897Z,17.50
2018-04-24T17:12:08.249Z,17.50
2018-04-24T17:14:38.339Z,17.40
2018-04-24T17:17:08.910Z,17.30
2018-04-24T17:19:39.982Z,17.30
2018-04-24T17:22:10.826Z,17.10
2018-04-24T17:24:42.054Z,17.10
2018-04-24T17:27:12.120Z,17.00
2018-04-24T17:29:42.529Z,16.80
2018-04-24T17:32:13.407Z,16.50
2018-04-24T17:34:43.495Z,16.50
2018-04-24T17:37:14.437Z,16.20
2018-04-24T17:39:45.252Z,16.10
2018-04-24T17:42:15.329Z,15.90
2018-04-24T17:44:46.405Z,15.50
2018-04-24T17:47:16.707Z,15.50
2018-04-24T17:49:46.890Z,15.40
2018-04-24T17:52:17.500Z,15.20
2018-04-24T17:54:47.270Z,15.00
2018-04-24T17:57:17.298Z,14.80
2018-04-24T17:59:47.797Z,14.70
2018-04-24T18:02:17.973Z,14.50
2018-04-24T18:04:48.078Z,14.40
2018-04-24T18:07:18.930Z,14.00
2018-04-24T18:09:49.649Z,14.00
2018-04-24T18:12:19.746Z,13.80
2018-04-24T18:14:50.090Z,13.60
2018-04-24T18:17:20.167Z,13.40
2018-04-24T18:19:51.149Z,13.10
2018-04-24T18:22:22.790Z,12.90
2018-04-24T18:24:53.997Z,12.80
2018-04-24T18:27:24.248Z,12.60
2018-04-24T18:29:54.375Z,12.40
2018-04-24T18:32:25.064Z,11.90
2018-04-24T18:34:55.191Z,11.90
2018-04-24T18:37:25.432Z,11.70
2018-04-24T18:39:55.766Z,11.40
2018-04-24T18:42:25.872Z,11.20
2018-04-24T18:44:56.320Z,11.10
2018-04-24T18:47:26.755Z,10.90
2018-04-24T18:49:57.128Z,10.80
2018-04-24T18:52:27.520Z,10.90
2018-04-24T18:54:58.416Z,10.90
2018-04-24T18:57:28.573Z,10.90
2018-04-24T18:59:59.484Z,10.90
2018-04-24T19:02:29.882Z,10.90
2018-04-24T19:05:00.819Z,11.00
2018-04-24T19:07:31.049Z,11.00
2018-04-24T19:10:01.114Z,11.00
2018-04-24T19:12:33.458Z,10.90
2018-04-24T19:15:03.569Z,10.90
2018-04-24T19:17:33.972Z,10.90
2018-04-24T19:20:04.030Z,10.90
2018-04-24T19:22:35.217Z,10.90
2018-04-24T19:25:10.518Z,10.90
2018-04-24T19:27:40.699Z,10.90
2018-04-24T19:30:11.243Z,10.80
2018-04-24T19:32:41.363Z,10.70
2018-04-24T19:35:12.439Z,10.60
2018-04-24T19:37:43.383Z,10.60
2018-04-24T19:40:19.320Z,10.50
2018-04-24T19:42:49.658Z,10.50
2018-04-24T19:45:20.781Z,10.50
2018-04-24T19:47:53.571Z,10.40
2018-04-24T19:50:24.558Z,10.40
2018-04-24T19:52:55.316Z,10.40
2018-04-24T19:55:26.146Z,10.40
2018-04-24T19:57:56.258Z,10.50
2018-04-24T20:00:26.592Z,10.40
2018-04-24T20:02:56.953Z,10.50
2018-04-24T20:05:27.445Z,10.40
2018-04-24T20:07:58.640Z,10.40
2018-04-24T20:10:29.277Z,10.30
2018-04-24T20:13:01.570Z,10.30
2018-04-24T20:15:32.727Z,10.30
2018-04-24T20:18:02.888Z,10.30
2018-04-24T20:20:33.268Z,10.20
2018-04-24T20:23:06.026Z,10.20
2018-04-24T20:25:37.201Z,10.10
2018-04-24T20:28:08.003Z,10.10
2018-04-24T20:30:39.645Z,10.10
2018-04-24T20:33:11.729Z,10.10
2018-04-24T20:35:43.024Z,10.00
2018-04-24T20:38:13.621Z,10.00
2018-04-24T20:40:45.055Z,10.10
2018-04-24T20:43:16.517Z,10.10
2018-04-24T20:45:48.763Z,10.10
2018-04-24T20:48:19.734Z,10.20
2018-04-24T20:50:50.141Z,10.20
2018-04-24T20:53:20.492Z,10.10
2018-04-24T20:55:52.162Z,10.00
2018-04-24T20:58:23.444Z,9.80
2018-04-24T21:00:53.893Z,9.80
2018-04-24T21:03:24.228Z,9.70
2018-04-24T21:05:54.375Z,9.70
2018-04-24T21:08:26.934Z,9.70
2018-04-24T21:10:57.114Z,9.70
2018-04-24T21:13:27.502Z,9.60
2018-04-24T21:15:57.619Z,9.60
2018-04-24T21:18:28.368Z,9.60
2018-04-24T21:20:58.865Z,9.60
2018-04-24T21:23:29.141Z,9.60
2018-04-24T21:25:59.270Z,9.50
2018-04-24T21:28:29.564Z,9.40
2018-04-24T21:30:59.773Z,9.40
2018-04-24T21:33:29.900Z,9.40
2018-04-24T21:36:00.281Z,9.40
2018-04-24T21:38:33.134Z,9.40
2018-04-24T21:41:04.842Z,9.40
2018-04-24T21:43:35.139Z,9.30
2018-04-24T21:46:06.248Z,9.30
2018-04-24T21:48:38.354Z,9.30
2018-04-24T21:51:12.095Z,9.30
2018-04-24T21:53:42.298Z,9.40
2018-04-24T21:56:12.689Z,9.30
2018-04-24T21:58:44.987Z,9.40
2018-04-24T22:01:16.346Z,9.40
2018-04-24T22:03:46.826Z,9.40
2018-04-24T22:06:17.138Z,9.40
2018-04-24T22:08:47.520Z,9.50
2018-04-24T22:11:19.708Z,9.50
2018-04-24T22:13:52.436Z,9.40
2018-04-24T22:16:24.719Z,9.40
2018-04-24T22:18:56.200Z,9.20
2018-04-24T22:21:28.195Z,9.20
2018-04-24T22:23:59.123Z,9.10
2018-04-24T22:26:29.609Z,9.00
2018-04-24T22:29:00.184Z,9.00
2018-04-24T22:31:30.736Z,9.00
2018-04-24T22:34:03.482Z,9.00
2018-04-24T22:36:33.656Z,9.00
2018-04-24T22:39:05.199Z,8.90
2018-04-24T22:41:35.589Z,8.90
2018-04-24T22:44:07.161Z,8.70
2018-04-24T22:46:37.374Z,8.70
2018-04-24T22:49:07.865Z,8.60
2018-04-24T22:51:38.890Z,8.50
2018-04-24T22:54:10.063Z,8.40
2018-04-24T22:56:41.195Z,8.40
2018-04-24T22:59:12.658Z,8.30
2018-04-24T23:01:43.391Z,8.30
2018-04-24T23:04:14.409Z,8.20
2018-04-24T23:06:44.579Z,8.10
2018-04-24T23:09:15.370Z,8.10
2018-04-24T23:12:03.408Z,7.90
2018-04-24T23:14:50.723Z,7.80
2018-04-24T23:17:37.407Z,7.80
2018-04-24T23:20:16.958Z,7.80
2018-04-24T23:22:47.656Z,7.70
2018-04-24T23:25:17.108Z,7.80
2018-04-24T23:27:46.869Z,7.80
2018-04-24T23:30:17.801Z,7.90
2018-04-24T23:32:48.728Z,7.90
2018-04-24T23:35:17.851Z,7.80
2018-04-24T23:37:49.525Z,7.80
2018-04-24T23:40:20.255Z,7.80
2018-04-24T23:42:52.835Z,7.90
2018-04-24T23:45:22.926Z,8.00
2018-04-24T23:47:53.316Z,7.90
2018-04-24T23:50:30.040Z,7.90
2018-04-24T23:53:00.760Z,8.00
2018-04-24T23:55:30.886Z,8.10
2018-04-24T23:58:02.883Z,8.20
